sensor_id;sensor_type;location;lat;lon;timestamp;pressure;altitude;pressure_sealevel;temperature
18161;BMP280;9205;52.032;4.314;2023-06-24T00:01:08;102371.38;;;20.65
18161;BMP280;9205;52.032;4.314;2023-06-24T00:03:39;102370.59;;;20.63
18161;BMP280;9205;52.032;4.314;2023-06-24T00:06:07;102376.66;;;20.62
18161;BMP280;9205;52.032;4.314;2023-06-24T00:08:36;102380.22;;;20.59
18161;BMP280;9205;52.032;4.314;2023-06-24T00:11:04;102378.63;;;20.55
18161;BMP280;9205;52.032;4.314;2023-06-24T00:13:34;102389.81;;;20.56
18161;BMP280;9205;52.032;4.314;2023-06-24T00:16:02;102384.81;;;20.51
18161;BMP280;9205;52.032;4.314;2023-06-24T00:18:33;102380.66;;;20.47
18161;BMP280;9205;52.032;4.314;2023-06-24T00:21:01;102385.06;;;20.46
18161;BMP280;9205;52.032;4.314;2023-06-24T00:23:30;102382.53;;;20.44
18161;BMP280;9205;52.032;4.314;2023-06-24T00:26:01;102391.06;;;20.46
18161;BMP280;9205;52.032;4.314;2023-06-24T00:28:34;102391.72;;;20.51
18161;BMP280;9205;52.032;4.314;2023-06-24T00:31:05;102386.56;;;20.51
18161;BMP280;9205;52.032;4.314;2023-06-24T00:33:32;102382.25;;;20.51
18161;BMP280;9205;52.032;4.314;2023-06-24T00:36:02;102383.94;;;20.52
18161;BMP280;9205;52.032;4.314;2023-06-24T00:38:29;102385.63;;;20.53
18161;BMP280;9205;52.032;4.314;2023-06-24T00:40:58;102390.06;;;20.50
18161;BMP280;9205;52.032;4.314;2023-06-24T00:43:26;102383.22;;;20.49
18161;BMP280;9205;52.032;4.314;2023-06-24T00:45:55;102379.00;;;20.47
18161;BMP280;9205;52.032;4.314;2023-06-24T00:48:23;102376.72;;;20.39
18161;BMP280;9205;52.032;4.314;2023-06-24T00:50:51;102380.25;;;20.37
18161;BMP280;9205;52.032;4.314;2023-06-24T00:53:19;102386.41;;;20.33
18161;BMP280;9205;52.032;4.314;2023-06-24T00:55:47;102378.84;;;20.28
18161;BMP280;9205;52.032;4.314;2023-06-24T00:58:15;102377.91;;;20.31
18161;BMP280;9205;52.032;4.314;2023-06-24T01:00:48;102382.09;;;20.33
18161;BMP280;9205;52.032;4.314;2023-06-24T01:03:25;102378.81;;;20.30
18161;BMP280;9205;52.032;4.314;2023-06-24T01:05:54;102376.63;;;20.19
18161;BMP280;9205;52.032;4.314;2023-06-24T01:08:24;102368.09;;;20.17
18161;BMP280;9205;52.032;4.314;2023-06-24T01:10:52;102369.88;;;20.15
18161;BMP280;9205;52.032;4.314;2023-06-24T01:13:20;102368.03;;;20.19
18161;BMP280;9205;52.032;4.314;2023-06-24T01:15:49;102367.84;;;20.23
18161;BMP280;9205;52.032;4.314;2023-06-24T01:18:31;102362.59;;;20.26
18161;BMP280;9205;52.032;4.314;2023-06-24T01:21:09;102358.44;;;20.22
18161;BMP280;9205;52.032;4.314;2023-06-24T01:24:17;102367.19;;;20.18
18161;BMP280;9205;52.032;4.314;2023-06-24T01:27:24;102364.81;;;20.12
18161;BMP280;9205;52.032;4.314;2023-06-24T01:30:27;102356.47;;;20.06
18161;BMP280;9205;52.032;4.314;2023-06-24T01:33:09;102346.19;;;20.04
18161;BMP280;9205;52.032;4.314;2023-06-24T01:35:39;102348.25;;;19.96
18161;BMP280;9205;52.032;4.314;2023-06-24T01:38:18;102351.56;;;20.00
18161;BMP280;9205;52.032;4.314;2023-06-24T01:40:51;102352.38;;;20.00
18161;BMP280;9205;52.032;4.314;2023-06-24T01:43:23;102349.81;;;20.00
18161;BMP280;9205;52.032;4.314;2023-06-24T01:45:54;102348.03;;;20.02
18161;BMP280;9205;52.032;4.314;2023-06-24T01:48:32;102351.50;;;20.01
18161;BMP280;9205;52.032;4.314;2023-06-24T01:51:12;102359.34;;;19.98
18161;BMP280;9205;52.032;4.314;2023-06-24T01:53:46;102357.72;;;19.96
18161;BMP280;9205;52.032;4.314;2023-06-24T01:56:17;102355.19;;;19.94
18161;BMP280;9205;52.032;4.314;2023-06-24T01:58:47;102359.53;;;19.92
18161;BMP280;9205;52.032;4.314;2023-06-24T02:01:18;102359.63;;;19.89
18161;BMP280;9205;52.032;4.314;2023-06-24T02:03:49;102369.19;;;19.87
18161;BMP280;9205;52.032;4.314;2023-06-24T02:06:22;102359.84;;;19.83
18161;BMP280;9205;52.032;4.314;2023-06-24T02:08:52;102351.13;;;19.87
18161;BMP280;9205;52.032;4.314;2023-06-24T02:11:23;102345.91;;;19.89
18161;BMP280;9205;52.032;4.314;2023-06-24T02:13:54;102345.06;;;19.88
18161;BMP280;9205;52.032;4.314;2023-06-24T02:16:23;102341.78;;;19.83
18161;BMP280;9205;52.032;4.314;2023-06-24T02:18:53;102334.28;;;19.77
18161;BMP280;9205;52.032;4.314;2023-06-24T02:21:23;102339.53;;;19.74
18161;BMP280;9205;52.032;4.314;2023-06-24T02:23:52;102346.56;;;19.71
18161;BMP280;9205;52.032;4.314;2023-06-24T02:26:22;102336.38;;;19.68
18161;BMP280;9205;52.032;4.314;2023-06-24T02:28:53;102345.59;;;19.73
18161;BMP280;9205;52.032;4.314;2023-06-24T02:31:20;102340.44;;;19.73
18161;BMP280;9205;52.032;4.314;2023-06-24T02:33:48;102342.19;;;19.73
18161;BMP280;9205;52.032;4.314;2023-06-24T02:36:17;102339.59;;;19.73
18161;BMP280;9205;52.032;4.314;2023-06-24T02:38:46;102336.31;;;19.69
18161;BMP280;9205;52.032;4.314;2023-06-24T02:41:17;102332.94;;;19.67
18161;BMP280;9205;52.032;4.314;2023-06-24T02:43:45;102336.38;;;19.68
18161;BMP280;9205;52.032;4.314;2023-06-24T02:46:14;102338.81;;;19.71
18161;BMP280;9205;52.032;4.314;2023-06-24T02:48:45;102341.56;;;19.66
18161;BMP280;9205;52.032;4.314;2023-06-24T02:51:13;102340.88;;;19.62
18161;BMP280;9205;52.032;4.314;2023-06-24T02:53:43;102342.78;;;19.57
18161;BMP280;9205;52.032;4.314;2023-06-24T02:56:13;102337.81;;;19.52
18161;BMP280;9205;52.032;4.314;2023-06-24T02:58:48;102329.91;;;19.57
18161;BMP280;9205;52.032;4.314;2023-06-24T03:01:26;102326.31;;;19.61
18161;BMP280;9205;52.032;4.314;2023-06-24T03:03:56;102329.78;;;19.60
18161;BMP280;9205;52.032;4.314;2023-06-24T03:06:24;102329.78;;;19.60
18161;BMP280;9205;52.032;4.314;2023-06-24T03:08:58;102328.88;;;19.61
18161;BMP280;9205;52.032;4.314;2023-06-24T03:11:27;102324.44;;;19.66
18161;BMP280;9205;52.032;4.314;2023-06-24T03:14:01;102319.16;;;19.68
18161;BMP280;9205;52.032;4.314;2023-06-24T03:16:37;102314.84;;;19.69
18161;BMP280;9205;52.032;4.314;2023-06-24T03:19:12;102320.94;;;19.66
18161;BMP280;9205;52.032;4.314;2023-06-24T03:21:40;102340.00;;;19.63
18161;BMP280;9205;52.032;4.314;2023-06-24T03:24:12;102331.25;;;19.66
18161;BMP280;9205;52.032;4.314;2023-06-24T03:26:42;102325.16;;;19.69
18161;BMP280;9205;52.032;4.314;2023-06-24T03:29:13;102332.91;;;19.69
18161;BMP280;9205;52.032;4.314;2023-06-24T03:31:53;102322.63;;;19.67
18161;BMP280;9205;52.032;4.314;2023-06-24T03:34:23;102320.91;;;19.68
18161;BMP280;9205;52.032;4.314;2023-06-24T03:36:58;102331.25;;;19.66
18161;BMP280;9205;52.032;4.314;2023-06-24T03:39:28;102331.38;;;19.64
18161;BMP280;9205;52.032;4.314;2023-06-24T03:41:56;102317.69;;;19.62
18161;BMP280;9205;52.032;4.314;2023-06-24T03:44:23;102317.78;;;19.59
18161;BMP280;9205;52.032;4.314;2023-06-24T03:46:51;102326.31;;;19.61
18161;BMP280;9205;52.032;4.314;2023-06-24T03:49:18;102321.28;;;19.58
18161;BMP280;9205;52.032;4.314;2023-06-24T03:51:47;102329.84;;;19.58
18161;BMP280;9205;52.032;4.314;2023-06-24T03:54:15;102327.19;;;19.60
18161;BMP280;9205;52.032;4.314;2023-06-24T03:56:44;102330.56;;;19.62
18161;BMP280;9205;52.032;4.314;2023-06-24T03:59:11;102338.31;;;19.62
18161;BMP280;9205;52.032;4.314;2023-06-24T04:01:39;102339.09;;;19.64
18161;BMP280;9205;52.032;4.314;2023-06-24T04:04:07;102338.31;;;19.62
18161;BMP280;9205;52.032;4.314;2023-06-24T04:06:35;102335.78;;;19.60
18161;BMP280;9205;52.032;4.314;2023-06-24T04:09:02;102336.75;;;19.58
18161;BMP280;9205;52.032;4.314;2023-06-24T04:11:30;102342.66;;;19.60
18161;BMP280;9205;52.032;4.314;2023-06-24T04:14:03;102345.16;;;19.63
18161;BMP280;9205;52.032;4.314;2023-06-24T04:16:33;102347.16;;;19.55
18161;BMP280;9205;52.032;4.314;2023-06-24T04:19:01;102345.47;;;19.54
18161;BMP280;9205;52.032;4.314;2023-06-24T04:21:31;102341.25;;;19.51
18161;BMP280;9205;52.032;4.314;2023-06-24T04:24:00;102347.09;;;19.56
18161;BMP280;9205;52.032;4.314;2023-06-24T04:26:28;102339.34;;;19.56
18161;BMP280;9205;52.032;4.314;2023-06-24T04:28:56;102343.47;;;19.62
18161;BMP280;9205;52.032;4.314;2023-06-24T04:31:25;102345.97;;;19.63
18161;BMP280;9205;52.032;4.314;2023-06-24T04:33:55;102348.53;;;19.65
18161;BMP280;9205;52.032;4.314;2023-06-24T04:36:22;102348.53;;;19.65
18161;BMP280;9205;52.032;4.314;2023-06-24T04:38:49;102354.72;;;19.59
18161;BMP280;9205;52.032;4.314;2023-06-24T04:41:16;102361.59;;;19.59
18161;BMP280;9205;52.032;4.314;2023-06-24T04:43:45;102359.75;;;19.62
18161;BMP280;9205;52.032;4.314;2023-06-24T04:46:15;102355.56;;;19.60
18161;BMP280;9205;52.032;4.314;2023-06-24T04:48:47;102353.63;;;19.66
18161;BMP280;9205;52.032;4.314;2023-06-24T04:51:15;102358.50;;;19.73
18161;BMP280;9205;52.032;4.314;2023-06-24T04:53:44;102354.91;;;19.77
18161;BMP280;9205;52.032;4.314;2023-06-24T04:56:12;102352.28;;;19.79
18161;BMP280;9205;52.032;4.314;2023-06-24T04:58:39;102361.63;;;19.81
18161;BMP280;9205;52.032;4.314;2023-06-24T05:01:07;102362.56;;;19.80
18161;BMP280;9205;52.032;4.314;2023-06-24T05:03:34;102358.28;;;19.79
18161;BMP280;9205;52.032;4.314;2023-06-24T05:06:04;102359.63;;;19.89
18161;BMP280;9205;52.032;4.314;2023-06-24T05:08:32;102346.00;;;19.86
18161;BMP280;9205;52.032;4.314;2023-06-24T05:10:59;102366.59;;;19.87
18161;BMP280;9205;52.032;4.314;2023-06-24T05:13:27;102364.63;;;19.95
18161;BMP280;9205;52.032;4.314;2023-06-24T05:15:55;102368.03;;;19.96
18161;BMP280;9205;52.032;4.314;2023-06-24T05:18:22;102366.97;;;20.01
18161;BMP280;9205;52.032;4.314;2023-06-24T05:20:50;102368.44;;;20.08
18161;BMP280;9205;52.032;4.314;2023-06-24T05:23:22;102360.44;;;20.14
18161;BMP280;9205;52.032;4.314;2023-06-24T05:25:50;102369.81;;;20.17
18161;BMP280;9205;52.032;4.314;2023-06-24T05:28:17;102362.75;;;20.22
18161;BMP280;9205;52.032;4.314;2023-06-24T05:30:45;102363.59;;;20.22
18161;BMP280;9205;52.032;4.314;2023-06-24T05:33:14;102364.44;;;20.23
18161;BMP280;9205;52.032;4.314;2023-06-24T05:35:43;102367.75;;;20.26
18161;BMP280;9205;52.032;4.314;2023-06-24T05:38:11;102370.25;;;20.28
18161;BMP280;9205;52.032;4.314;2023-06-24T05:40:41;102372.03;;;20.27
18161;BMP280;9205;52.032;4.314;2023-06-24T05:43:10;102377.91;;;20.31
18161;BMP280;9205;52.032;4.314;2023-06-24T05:45:39;102379.34;;;20.38
18161;BMP280;9205;52.032;4.314;2023-06-24T05:48:07;102392.09;;;20.42
18161;BMP280;9205;52.032;4.314;2023-06-24T05:50:34;102389.50;;;20.42
18161;BMP280;9205;52.032;4.314;2023-06-24T05:53:02;102390.16;;;20.47
18161;BMP280;9205;52.032;4.314;2023-06-24T05:55:30;102402.72;;;20.56
18161;BMP280;9205;52.032;4.314;2023-06-24T05:57:59;102402.72;;;20.56
18161;BMP280;9205;52.032;4.314;2023-06-24T06:00:30;102398.16;;;20.62
18161;BMP280;9205;52.032;4.314;2023-06-24T06:02:57;102395.34;;;20.68
18161;BMP280;9205;52.032;4.314;2023-06-24T06:05:25;102387.53;;;20.70
18161;BMP280;9205;52.032;4.314;2023-06-24T06:07:52;102385.84;;;20.69
18161;BMP280;9205;52.032;4.314;2023-06-24T06:10:20;102392.16;;;20.62
18161;BMP280;9205;52.032;4.314;2023-06-24T06:12:48;102398.81;;;20.67
18161;BMP280;9205;52.032;4.314;2023-06-24T06:15:20;102403.09;;;20.68
18161;BMP280;9205;52.032;4.314;2023-06-24T06:17:47;102398.59;;;20.73
18161;BMP280;9205;52.032;4.314;2023-06-24T06:20:15;102399.56;;;20.71
18161;BMP280;9205;52.032;4.314;2023-06-24T06:22:43;102396.31;;;20.66
18161;BMP280;9205;52.032;4.314;2023-06-24T06:25:10;102393.59;;;20.69
18161;BMP280;9205;52.032;4.314;2023-06-24T06:27:39;102385.75;;;20.72
18161;BMP280;9205;52.032;4.314;2023-06-24T06:30:12;102393.41;;;20.73
18161;BMP280;9205;52.032;4.314;2023-06-24T06:32:42;102395.75;;;20.81
18161;BMP280;9205;52.032;4.314;2023-06-24T06:35:09;102383.72;;;20.80
18161;BMP280;9205;52.032;4.314;2023-06-24T06:37:37;102390.34;;;20.87
18161;BMP280;9205;52.032;4.314;2023-06-24T06:40:06;102391.88;;;20.91
18161;BMP280;9205;52.032;4.314;2023-06-24T06:42:34;102381.31;;;20.97
18161;BMP280;9205;52.032;4.314;2023-06-24T06:45:02;102388.03;;;21.01
18161;BMP280;9205;52.032;4.314;2023-06-24T06:47:34;102388.56;;;21.09
18161;BMP280;9205;52.032;4.314;2023-06-24T06:50:07;102397.75;;;21.16
18161;BMP280;9205;52.032;4.314;2023-06-24T06:52:35;102395.88;;;21.19
18161;BMP280;9205;52.032;4.314;2023-06-24T06:55:05;102406.13;;;21.21
18161;BMP280;9205;52.032;4.314;2023-06-24T06:57:32;102399.06;;;21.26
18161;BMP280;9205;52.032;4.314;2023-06-24T07:00:00;102406.75;;;21.27
18161;BMP280;9205;52.032;4.314;2023-06-24T07:02:28;102399.44;;;21.36
18161;BMP280;9205;52.032;4.314;2023-06-24T07:04:55;102409.53;;;21.42
18161;BMP280;9205;52.032;4.314;2023-06-24T07:07:24;102403.41;;;21.45
18161;BMP280;9205;52.032;4.314;2023-06-24T07:09:51;102406.50;;;21.53
18161;BMP280;9205;52.032;4.314;2023-06-24T07:12:19;102411.38;;;21.60
18161;BMP280;9205;52.032;4.314;2023-06-24T07:14:47;102398.25;;;21.65
18161;BMP280;9205;52.032;4.314;2023-06-24T07:17:16;102395.59;;;21.66
18161;BMP280;9205;52.032;4.314;2023-06-24T07:19:44;102402.25;;;21.72
18161;BMP280;9205;52.032;4.314;2023-06-24T07:22:14;102406.50;;;21.73
18161;BMP280;9205;52.032;4.314;2023-06-24T07:24:43;102401.16;;;21.77
18161;BMP280;9205;52.032;4.314;2023-06-24T07:27:10;102403.72;;;21.77
18161;BMP280;9205;52.032;4.314;2023-06-24T07:29:37;102401.22;;;21.76
18161;BMP280;9205;52.032;4.314;2023-06-24T07:32:06;102404.38;;;21.82
18161;BMP280;9205;52.032;4.314;2023-06-24T07:34:34;102402.47;;;21.86
18161;BMP280;9205;52.032;4.314;2023-06-24T07:37:02;102399.78;;;21.89
18161;BMP280;9205;52.032;4.314;2023-06-24T07:39:32;102398.75;;;21.93
18161;BMP280;9205;52.032;4.314;2023-06-24T07:42:02;102400.97;;;22.00
18161;BMP280;9205;52.032;4.314;2023-06-24T07:44:30;102400.00;;;22.03
18161;BMP280;9205;52.032;4.314;2023-06-24T07:46:57;102394.56;;;22.08
18161;BMP280;9205;52.032;4.314;2023-06-24T07:49:24;102402.38;;;22.07
18161;BMP280;9205;52.032;4.314;2023-06-24T07:51:52;102405.75;;;22.09
18161;BMP280;9205;52.032;4.314;2023-06-24T07:54:20;102397.72;;;22.15
18161;BMP280;9205;52.032;4.314;2023-06-24T07:56:49;102400.59;;;22.27
18161;BMP280;9205;52.032;4.314;2023-06-24T07:59:19;102396.06;;;22.32
18161;BMP280;9205;52.032;4.314;2023-06-24T08:01:47;102402.72;;;22.38
18161;BMP280;9205;52.032;4.314;2023-06-24T08:04:15;102403.28;;;22.44
18161;BMP280;9205;52.032;4.314;2023-06-24T08:06:43;102404.97;;;22.45
18161;BMP280;9205;52.032;4.314;2023-06-24T08:09:11;102408.25;;;22.49
18161;BMP280;9205;52.032;4.314;2023-06-24T08:11:39;102407.19;;;22.53
18161;BMP280;9205;52.032;4.314;2023-06-24T08:14:07;102405.97;;;22.60
18161;BMP280;9205;52.032;4.314;2023-06-24T08:16:38;102410.81;;;22.67
18161;BMP280;9205;52.032;4.314;2023-06-24T08:19:09;102409.63;;;22.74
18161;BMP280;9205;52.032;4.314;2023-06-24T08:22:18;102401.50;;;22.82
18161;BMP280;9205;52.032;4.314;2023-06-24T08:25:02;102400.41;;;22.86
18161;BMP280;9205;52.032;4.314;2023-06-24T08:27:32;102398.66;;;22.86
18161;BMP280;9205;52.032;4.314;2023-06-24T08:29:59;102395.03;;;22.90
18161;BMP280;9205;52.032;4.314;2023-06-24T08:32:28;102396.78;;;22.89
18161;BMP280;9205;52.032;4.314;2023-06-24T08:34:56;102400.75;;;22.96
18161;BMP280;9205;52.032;4.314;2023-06-24T08:37:26;102401.38;;;23.01
18161;BMP280;9205;52.032;4.314;2023-06-24T08:39:56;102397.59;;;23.08
18161;BMP280;9205;52.032;4.314;2023-06-24T08:42:25;102397.91;;;23.19
18161;BMP280;9205;52.032;4.314;2023-06-24T08:44:53;102400.78;;;23.30
18161;BMP280;9205;52.032;4.314;2023-06-24T08:47:24;102396.53;;;23.29
18161;BMP280;9205;52.032;4.314;2023-06-24T08:50:02;102398.88;;;23.34
18161;BMP280;9205;52.032;4.314;2023-06-24T08:52:36;102395.56;;;23.32
18161;BMP280;9205;52.032;4.314;2023-06-24T08:55:10;102392.66;;;23.38
18161;BMP280;9205;52.032;4.314;2023-06-24T08:57:53;102386.06;;;23.48
18161;BMP280;9205;52.032;4.314;2023-06-24T09:00:21;102391.63;;;23.57
18161;BMP280;9205;52.032;4.314;2023-06-24T09:02:49;102393.91;;;23.63
18161;BMP280;9205;52.032;4.314;2023-06-24T09:05:22;102398.97;;;23.66
18161;BMP280;9205;52.032;4.314;2023-06-24T09:07:51;102389.25;;;23.69
18161;BMP280;9205;52.032;4.314;2023-06-24T09:10:32;102391.16;;;23.83
18161;BMP280;9205;52.032;4.314;2023-06-24T09:13:06;102395.09;;;23.90
18161;BMP280;9205;52.032;4.314;2023-06-24T09:15:35;102388.88;;;23.77
18161;BMP280;9205;52.032;4.314;2023-06-24T09:18:04;102397.56;;;23.76
18161;BMP280;9205;52.032;4.314;2023-06-24T09:20:33;102392.44;;;23.91
18161;BMP280;9205;52.032;4.314;2023-06-24T09:23:05;102382.25;;;24.04
18161;BMP280;9205;52.032;4.314;2023-06-24T09:25:33;102384.53;;;24.10
18161;BMP280;9205;52.032;4.314;2023-06-24T09:28:04;102387.53;;;24.18
18161;BMP280;9205;52.032;4.314;2023-06-24T09:30:33;102394.22;;;24.22
18161;BMP280;9205;52.032;4.314;2023-06-24T09:33:01;102385.72;;;24.20
18161;BMP280;9205;52.032;4.314;2023-06-24T09:35:36;102384.75;;;24.21
18161;BMP280;9205;52.032;4.314;2023-06-24T09:38:04;102385.81;;;24.34
18161;BMP280;9205;52.032;4.314;2023-06-24T09:40:35;102391.25;;;24.45
18161;BMP280;9205;52.032;4.314;2023-06-24T09:43:03;102393.19;;;24.56
18161;BMP280;9205;52.032;4.314;2023-06-24T09:45:30;102397.53;;;24.56
18161;BMP280;9205;52.032;4.314;2023-06-24T09:48:01;102391.44;;;24.57
18161;BMP280;9205;52.032;4.314;2023-06-24T09:50:29;102387.50;;;24.65
18161;BMP280;9205;52.032;4.314;2023-06-24T09:53:00;102385.81;;;24.64
18161;BMP280;9205;52.032;4.314;2023-06-24T09:55:31;102390.16;;;24.64
18161;BMP280;9205;52.032;4.314;2023-06-24T09:57:59;102387.81;;;24.75
18161;BMP280;9205;52.032;4.314;2023-06-24T10:00:27;102383.84;;;24.83
18161;BMP280;9205;52.032;4.314;2023-06-24T10:02:56;102392.97;;;24.90
18161;BMP280;9205;52.032;4.314;2023-06-24T10:05:24;102384.44;;;24.88
18161;BMP280;9205;52.032;4.314;2023-06-24T10:07:54;102379.56;;;24.82
18161;BMP280;9205;52.032;4.314;2023-06-24T10:10:23;102388.31;;;24.81
18161;BMP280;9205;52.032;4.314;2023-06-24T10:12:52;102383.69;;;24.86
18161;BMP280;9205;52.032;4.314;2023-06-24T10:15:20;102381.66;;;24.91
18161;BMP280;9205;52.032;4.314;2023-06-24T10:17:47;102388.47;;;24.94
18161;BMP280;9205;52.032;4.314;2023-06-24T10:20:24;102383.38;;;25.06
18161;BMP280;9205;52.032;4.314;2023-06-24T10:22:53;102380.47;;;25.12
18161;BMP280;9205;52.032;4.314;2023-06-24T10:25:21;102378.00;;;25.25
18161;BMP280;9205;52.032;4.314;2023-06-24T10:27:54;102379.97;;;25.35
18161;BMP280;9205;52.032;4.314;2023-06-24T10:30:22;102369.38;;;25.38
18161;BMP280;9205;52.032;4.314;2023-06-24T10:32:53;102370.34;;;25.51
18161;BMP280;9205;52.032;4.314;2023-06-24T10:35:26;102364.56;;;25.46
18161;BMP280;9205;52.032;4.314;2023-06-24T10:37:57;102365.09;;;25.37
18161;BMP280;9205;52.032;4.314;2023-06-24T10:40:39;102363.41;;;25.22
18161;BMP280;9205;52.032;4.314;2023-06-24T10:43:27;102364.00;;;25.41
18161;BMP280;9205;52.032;4.314;2023-06-24T10:45:57;102363.63;;;25.47
18161;BMP280;9205;52.032;4.314;2023-06-24T10:48:25;102355.28;;;25.42
18161;BMP280;9205;52.032;4.314;2023-06-24T10:50:52;102351.16;;;25.52
18161;BMP280;9205;52.032;4.314;2023-06-24T10:53:22;102354.34;;;25.71
18161;BMP280;9205;52.032;4.314;2023-06-24T10:55:50;102364.34;;;25.78
18161;BMP280;9205;52.032;4.314;2023-06-24T10:58:19;102353.56;;;25.84
18161;BMP280;9205;52.032;4.314;2023-06-24T11:00:48;102348.50;;;26.09
18161;BMP280;9205;52.032;4.314;2023-06-24T11:03:17;102348.94;;;26.43
18161;BMP280;9205;52.032;4.314;2023-06-24T11:05:48;102347.66;;;27.14
18161;BMP280;9205;52.032;4.314;2023-06-24T11:08:16;102338.59;;;27.94
18161;BMP280;9205;52.032;4.314;2023-06-24T11:10:45;102343.41;;;28.59
18161;BMP280;9205;52.032;4.314;2023-06-24T11:13:13;102342.06;;;29.00
18161;BMP280;9205;52.032;4.314;2023-06-24T11:15:42;102344.34;;;29.16
18161;BMP280;9205;52.032;4.314;2023-06-24T11:18:13;102339.88;;;29.39
18161;BMP280;9205;52.032;4.314;2023-06-24T11:20:41;102338.38;;;29.48
18161;BMP280;9205;52.032;4.314;2023-06-24T11:23:10;102336.69;;;29.47
18161;BMP280;9205;52.032;4.314;2023-06-24T11:25:42;102342.91;;;29.23
18161;BMP280;9205;52.032;4.314;2023-06-24T11:28:16;102329.16;;;29.21
18161;BMP280;9205;52.032;4.314;2023-06-24T11:30:44;102335.53;;;29.06
18161;BMP280;9205;52.032;4.314;2023-06-24T11:33:13;102336.22;;;29.08
18161;BMP280;9205;52.032;4.314;2023-06-24T11:35:42;102334.94;;;29.02
18161;BMP280;9205;52.032;4.314;2023-06-24T11:38:09;102332.88;;;28.95
18161;BMP280;9205;52.032;4.314;2023-06-24T11:40:39;102335.97;;;28.89
18161;BMP280;9205;52.032;4.314;2023-06-24T11:43:08;102327.78;;;28.93
18161;BMP280;9205;52.032;4.314;2023-06-24T11:45:35;102330.03;;;28.98
18161;BMP280;9205;52.032;4.314;2023-06-24T11:48:05;102335.00;;;28.90
18161;BMP280;9205;52.032;4.314;2023-06-24T11:50:36;102329.22;;;29.08
18161;BMP280;9205;52.032;4.314;2023-06-24T11:53:04;102321.25;;;29.10
18161;BMP280;9205;52.032;4.314;2023-06-24T11:55:32;102323.41;;;29.16
18161;BMP280;9205;52.032;4.314;2023-06-24T11:58:02;102332.66;;;29.09
18161;BMP280;9205;52.032;4.314;2023-06-24T12:00:32;102320.56;;;29.19
18161;BMP280;9205;52.032;4.314;2023-06-24T12:03:06;102325.69;;;29.20
18161;BMP280;9205;52.032;4.314;2023-06-24T12:05:38;102319.50;;;29.21
18161;BMP280;9205;52.032;4.314;2023-06-24T12:08:12;102316.53;;;29.26
18161;BMP280;9205;52.032;4.314;2023-06-24T12:10:41;102312.25;;;29.25
18161;BMP280;9205;52.032;4.314;2023-06-24T12:13:10;102324.13;;;29.18
18161;BMP280;9205;52.032;4.314;2023-06-24T12:15:38;102314.38;;;29.31
18161;BMP280;9205;52.032;4.314;2023-06-24T12:18:05;102312.78;;;29.40
18161;BMP280;9205;52.032;4.314;2023-06-24T12:20:33;102316.56;;;29.47
18161;BMP280;9205;52.032;4.314;2023-06-24T12:23:04;102316.41;;;29.27
18161;BMP280;9205;52.032;4.314;2023-06-24T12:25:34;102313.09;;;29.25
18161;BMP280;9205;52.032;4.314;2023-06-24T12:28:04;102311.06;;;29.29
18161;BMP280;9205;52.032;4.314;2023-06-24T12:30:32;102312.78;;;29.40
18161;BMP280;9205;52.032;4.314;2023-06-24T12:33:01;102303.13;;;29.52
18161;BMP280;9205;52.032;4.314;2023-06-24T12:35:29;102304.09;;;29.40
18161;BMP280;9205;52.032;4.314;2023-06-24T12:37:56;102301.81;;;29.46
18161;BMP280;9205;52.032;4.314;2023-06-24T12:40:25;102300.28;;;29.44
18161;BMP280;9205;52.032;4.314;2023-06-24T12:42:53;102305.00;;;29.28
18161;BMP280;9205;52.032;4.314;2023-06-24T12:45:23;102301.44;;;29.29
18161;BMP280;9205;52.032;4.314;2023-06-24T12:47:51;102299.28;;;29.23
18161;BMP280;9205;52.032;4.314;2023-06-24T12:50:18;102305.56;;;29.10
18161;BMP280;9205;52.032;4.314;2023-06-24T12:52:45;102315.50;;;28.83
18161;BMP280;9205;52.032;4.314;2023-06-24T12:55:14;102305.25;;;28.56
18161;BMP280;9205;52.032;4.314;2023-06-24T12:57:43;102307.09;;;28.67
18161;BMP280;9205;52.032;4.314;2023-06-24T13:00:12;102318.38;;;28.67
18161;BMP280;9205;52.032;4.314;2023-06-24T13:02:40;102312.47;;;28.76
18161;BMP280;9205;52.032;4.314;2023-06-24T13:05:08;102326.47;;;28.75
18161;BMP280;9205;52.032;4.314;2023-06-24T13:07:36;102307.75;;;28.58
18161;BMP280;9205;52.032;4.314;2023-06-24T13:10:03;102306.44;;;28.53
18161;BMP280;9205;52.032;4.314;2023-06-24T13:12:32;102305.50;;;28.64
18161;BMP280;9205;52.032;4.314;2023-06-24T13:15:01;102308.84;;;28.66
18161;BMP280;9205;52.032;4.314;2023-06-24T13:17:30;102309.25;;;28.73
18161;BMP280;9205;52.032;4.314;2023-06-24T13:19:57;102310.06;;;28.97
18161;BMP280;9205;52.032;4.314;2023-06-24T13:22:26;102307.53;;;28.84
18161;BMP280;9205;52.032;4.314;2023-06-24T13:24:53;102303.25;;;28.83
18161;BMP280;9205;52.032;4.314;2023-06-24T13:27:21;102296.72;;;28.89
18161;BMP280;9205;52.032;4.314;2023-06-24T13:29:49;102298.41;;;28.90
18161;BMP280;9205;52.032;4.314;2023-06-24T13:32:19;102303.38;;;28.93
18161;BMP280;9205;52.032;4.314;2023-06-24T13:34:47;102297.78;;;28.86
18161;BMP280;9205;52.032;4.314;2023-06-24T13:37:14;102295.53;;;28.93
18161;BMP280;9205;52.032;4.314;2023-06-24T13:39:42;102300.28;;;28.88
18161;BMP280;9205;52.032;4.314;2023-06-24T13:42:10;102295.53;;;28.82
18161;BMP280;9205;52.032;4.314;2023-06-24T13:44:40;102301.69;;;28.81
18161;BMP280;9205;52.032;4.314;2023-06-24T13:47:07;102302.28;;;28.61
18161;BMP280;9205;52.032;4.314;2023-06-24T13:49:36;102299.47;;;28.64
18161;BMP280;9205;52.032;4.314;2023-06-24T13:52:05;102298.66;;;28.74
18161;BMP280;9205;52.032;4.314;2023-06-24T13:54:32;102293.91;;;29.03
18161;BMP280;9205;52.032;4.314;2023-06-24T13:57:01;102298.41;;;28.90
18161;BMP280;9205;52.032;4.314;2023-06-24T13:59:28;102295.56;;;29.04
18161;BMP280;9205;52.032;4.314;2023-06-24T14:01:56;102289.03;;;29.09
18161;BMP280;9205;52.032;4.314;2023-06-24T14:04:24;102293.56;;;29.29
18161;BMP280;9205;52.032;4.314;2023-06-24T14:06:53;102293.00;;;29.47
18161;BMP280;9205;52.032;4.314;2023-06-24T14:09:20;102290.22;;;29.05
18161;BMP280;9205;52.032;4.314;2023-06-24T14:11:49;102286.88;;;28.92
18161;BMP280;9205;52.032;4.314;2023-06-24T14:14:17;102289.22;;;28.84
18161;BMP280;9205;52.032;4.314;2023-06-24T14:16:45;102287.22;;;28.88
18161;BMP280;9205;52.032;4.314;2023-06-24T14:19:12;102286.00;;;28.92
18161;BMP280;9205;52.032;4.314;2023-06-24T14:21:40;102292.22;;;28.91
18161;BMP280;9205;52.032;4.314;2023-06-24T14:24:09;102294.84;;;28.91